Wetterdaten: Woche 27.07.09 - 02.08.09 (KW31)
Datum Zeit Temperatur Luftfeuchte Luftdruck Niederschlag Windrichtung Wind
27.07.2009 00:00 13,2 C 83 % 1017,2 hPa 0,0 l/m N-NO 2,4 km/h (1 Bft)
27.07.2009 01:00 12,4 C 86 % 1016,7 hPa 0,0 l/m N 0,0 km/h (0 Bft)
27.07.2009 02:00 11,5 C 90 % 1016,3 hPa 0,0 l/m N 0,0 km/h (0 Bft)
27.07.2009 03:00 11,0 C 92 % 1015,9 hPa 0,0 l/m N 0,0 km/h (0 Bft)
27.07.2009 04:00 10,5 C 93 % 1015,6 hPa 0,0 l/m N 0,0 km/h (0 Bft)
27.07.2009 05:00 9,9 C 93 % 1015,5 hPa 0,0 l/m N 0,0 km/h (0 Bft)
27.07.2009 06:00 9,9 C 95 % 1015,2 hPa 0,0 l/m N 0,0 km/h (0 Bft)
27.07.2009 07:00 12,3 C 90 % 1015,0 hPa 0,0 l/m N-NO 0,9 km/h (0 Bft)
27.07.2009 08:00 15,6 C 80 % 1014,8 hPa 0,0 l/m N-NO 2,8 km/h (1 Bft)
27.07.2009 09:00 18,8 C 73 % 1014,3 hPa 0,0 l/m S-SW 5,6 km/h (1 Bft)
27.07.2009 10:00 21,6 C 66 % 1013,9 hPa 0,0 l/m S 9,1 km/h (2 Bft)
27.07.2009 11:00 23,9 C 56 % 1013,4 hPa 0,0 l/m S-SW 8,3 km/h (2 Bft)
27.07.2009 12:00 25,9 C 49 % 1012,9 hPa 0,0 l/m S-SW 13,6 km/h (3 Bft)
27.07.2009 13:00 27,0 C 43 % 1012,1 hPa 0,0 l/m S-SW 15,6 km/h (3 Bft)
27.07.2009 14:00 28,2 C 30 % 1011,5 hPa 0,0 l/m SW 17,2 km/h (3 Bft)
27.07.2009 15:00 28,9 C 29 % 1011,2 hPa 0,0 l/m W-SW 19,6 km/h (3 Bft)
27.07.2009 16:00 28,5 C 32 % 1011,1 hPa 0,0 l/m W 19,9 km/h (4 Bft)
27.07.2009 17:00 27,4 C 40 % 1011,0 hPa 0,0 l/m W-SW 10,9 km/h (2 Bft)
27.07.2009 18:00 26,2 C 50 % 1010,5 hPa 0,0 l/m W-SW 4,4 km/h (1 Bft)
27.07.2009 19:00 26,0 C 48 % 1011,3 hPa 0,0 l/m W-SW 9,3 km/h (2 Bft)
27.07.2009 20:00 23,6 C 57 % 1011,2 hPa 0,0 l/m N-NW 6,4 km/h (2 Bft)
27.07.2009 21:00 21,1 C 68 % 1011,8 hPa 0,0 l/m NW 2,4 km/h (1 Bft)
27.07.2009 22:00 19,9 C 78 % 1012,6 hPa 4,6 l/m NW 10,6 km/h (2 Bft)
27.07.2009 23:00 17,1 C 90 % 1014,4 hPa 5,2 l/m N-NO 14,7 km/h (3 Bft)
28.07.2009 00:00 16,7 C 94 % 1015,9 hPa 5,8 l/m SO 5,9 km/h (2 Bft)
28.07.2009 01:00 16,4 C 95 % 1015,7 hPa 0,8 l/m W-SW 5,5 km/h (1 Bft)
28.07.2009 02:00 16,3 C 96 % 1016,0 hPa 11,6 l/m SO 8,9 km/h (2 Bft)
28.07.2009 03:00 16,1 C 97 % 1016,3 hPa 7,8 l/m W-NW 7,0 km/h (2 Bft)
28.07.2009 04:00 14,6 C 92 % 1017,0 hPa 0,2 l/m N-NW 18,9 km/h (3 Bft)
28.07.2009 05:00 14,0 C 93 % 1017,6 hPa 0,4 l/m N-NW 11,3 km/h (2 Bft)
28.07.2009 06:00 13,9 C 94 % 1018,3 hPa 0,0 l/m N-NW 3,3 km/h (1 Bft)
28.07.2009 07:00 14,1 C 95 % 1018,9 hPa 0,0 l/m W-NW 6,6 km/h (2 Bft)
28.07.2009 08:00 14,8 C 91 % 1019,4 hPa 0,0 l/m W-NW 6,3 km/h (2 Bft)
28.07.2009 09:00 16,1 C 84 % 1019,6 hPa 0,0 l/m SW 6,7 km/h (2 Bft)
28.07.2009 10:00 17,3 C 75 % 1019,8 hPa 0,0 l/m W 7,4 km/h (2 Bft)
28.07.2009 11:00 17,9 C 71 % 1019,9 hPa 0,0 l/m N-NO 6,8 km/h (2 Bft)
28.07.2009 12:00 18,5 C 68 % 1019,8 hPa 0,0 l/m N-NW 7,2 km/h (2 Bft)
28.07.2009 13:00 19,4 C 65 % 1019,4 hPa 0,0 l/m N 7,2 km/h (2 Bft)
28.07.2009 14:00 20,7 C 60 % 1019,0 hPa 0,0 l/m NO 8,0 km/h (2 Bft)
28.07.2009 15:00 20,9 C 59 % 1018,8 hPa 0,0 l/m NW 7,5 km/h (2 Bft)
28.07.2009 16:00 21,4 C 56 % 1018,7 hPa 0,0 l/m N-NO 8,0 km/h (2 Bft)
28.07.2009 17:00 21,9 C 52 % 1018,5 hPa 0,0 l/m O-SO 7,6 km/h (2 Bft)
28.07.2009 18:00 21,9 C 53 % 1018,5 hPa 0,0 l/m O-NO 10,2 km/h (2 Bft)
28.07.2009 19:00 21,2 C 55 % 1018,7 hPa 0,0 l/m NO 6,4 km/h (2 Bft)
28.07.2009 20:00 18,8 C 73 % 1018,9 hPa 0,0 l/m NO 3,3 km/h (1 Bft)
28.07.2009 21:00 16,4 C 81 % 1019,3 hPa 0,0 l/m N 0,8 km/h (0 Bft)
28.07.2009 22:00 15,0 C 86 % 1019,4 hPa 0,0 l/m N 0,8 km/h (0 Bft)
28.07.2009 23:00 14,3 C 88 % 1019,4 hPa 0,0 l/m N 2,3 km/h (1 Bft)
29.07.2009 00:00 13,8 C 90 % 1019,3 hPa 0,0 l/m N-NW 2,8 km/h (1 Bft)
29.07.2009 01:00 13,5 C 91 % 1019,3 hPa 0,0 l/m N-NW 5,3 km/h (1 Bft)
29.07.2009 02:00 13,1 C 92 % 1019,2 hPa 0,0 l/m N-NW 4,1 km/h (1 Bft)
29.07.2009 03:00 12,5 C 93 % 1019,0 hPa 0,0 l/m N 1,9 km/h (1 Bft)
29.07.2009 04:00 12,1 C 95 % 1019,1 hPa 0,0 l/m N-NW 2,5 km/h (1 Bft)
29.07.2009 05:00 11,7 C 95 % 1019,0 hPa 0,0 l/m N 1,7 km/h (1 Bft)
29.07.2009 06:00 11,4 C 96 % 1018,8 hPa 0,0 l/m N-NW 3,2 km/h (1 Bft)
29.07.2009 07:00 12,8 C 95 % 1018,7 hPa 0,0 l/m N-NW 2,9 km/h (1 Bft)
29.07.2009 08:00 15,5 C 87 % 1018,8 hPa 0,0 l/m N-NO 5,6 km/h (1 Bft)
29.07.2009 09:00 18,1 C 80 % 1018,7 hPa 0,0 l/m N 5,7 km/h (1 Bft)
29.07.2009 10:00 20,6 C 71 % 1018,3 hPa 0,0 l/m O-SO 4,9 km/h (1 Bft)
29.07.2009 11:00 22,5 C 62 % 1017,8 hPa 0,0 l/m O-SO 7,9 km/h (2 Bft)
29.07.2009 12:00 24,1 C 53 % 1017,3 hPa 0,0 l/m S-SO 7,8 km/h (2 Bft)
29.07.2009 13:00 25,3 C 48 % 1016,7 hPa 0,0 l/m O 7,8 km/h (2 Bft)
29.07.2009 14:00 26,3 C 44 % 1015,8 hPa 0,0 l/m S-SO 8,8 km/h (2 Bft)
29.07.2009 15:00 27,3 C 37 % 1015,3 hPa 0,0 l/m W 15,0 km/h (3 Bft)
29.07.2009 16:00 28,1 C 33 % 1014,8 hPa 0,0 l/m SW 12,8 km/h (3 Bft)
29.07.2009 17:00 27,9 C 26 % 1014,6 hPa 0,0 l/m W 9,9 km/h (2 Bft)
29.07.2009 18:00 27,2 C 32 % 1014,1 hPa 0,0 l/m W-SW 8,2 km/h (2 Bft)
29.07.2009 19:00 24,8 C 45 % 1014,1 hPa 0,0 l/m W-SW 5,5 km/h (1 Bft)
29.07.2009 20:00 21,1 C 60 % 1014,2 hPa 0,0 l/m W-SW 3,1 km/h (1 Bft)
29.07.2009 21:00 18,8 C 73 % 1014,7 hPa 0,0 l/m N 0,9 km/h (0 Bft)
29.07.2009 22:00 17,6 C 79 % 1014,8 hPa 0,0 l/m N 0,3 km/h (0 Bft)
29.07.2009 23:00 16,5 C 83 % 1014,5 hPa 0,0 l/m N 0,1 km/h (0 Bft)
30.07.2009 00:00 15,7 C 87 % 1013,9 hPa 0,0 l/m N 0,0 km/h (0 Bft)
30.07.2009 01:00 15,3 C 89 % 1013,4 hPa 0,0 l/m N 0,0 km/h (0 Bft)
30.07.2009 02:00 14,8 C 92 % 1013,0 hPa 0,0 l/m N 0,3 km/h (0 Bft)
30.07.2009 03:00 14,5 C 92 % 1012,8 hPa 0,0 l/m N 0,5 km/h (0 Bft)
30.07.2009 04:00 15,6 C 87 % 1013,4 hPa 0,0 l/m W-SW 13,0 km/h (3 Bft)
30.07.2009 05:00 16,7 C 82 % 1014,8 hPa 0,0 l/m SW 10,1 km/h (2 Bft)
30.07.2009 06:00 17,3 C 83 % 1016,2 hPa 0,0 l/m W 12,6 km/h (3 Bft)
30.07.2009 07:00 17,4 C 85 % 1017,2 hPa 0,0 l/m S-SW 6,7 km/h (2 Bft)
30.07.2009 08:00 17,9 C 86 % 1017,8 hPa 0,0 l/m SW 7,0 km/h (2 Bft)
30.07.2009 09:00 19,1 C 77 % 1018,3 hPa 0,0 l/m W 15,4 km/h (3 Bft)
30.07.2009 10:00 19,9 C 61 % 1019,1 hPa 0,0 l/m W-NW 15,3 km/h (3 Bft)
30.07.2009 11:00 20,0 C 61 % 1019,6 hPa 0,0 l/m W-SW 10,3 km/h (2 Bft)
30.07.2009 12:00 20,2 C 63 % 1019,9 hPa 0,0 l/m W-SW 11,4 km/h (2 Bft)
30.07.2009 13:00 20,8 C 66 % 1019,9 hPa 0,0 l/m W-SW 12,9 km/h (3 Bft)
30.07.2009 14:00 20,8 C 66 % 1019,8 hPa 0,0 l/m W-SW 12,5 km/h (3 Bft)
30.07.2009 15:00 21,7 C 63 % 1019,6 hPa 0,0 l/m W-SW 14,6 km/h (3 Bft)
30.07.2009 16:00 21,8 C 58 % 1019,5 hPa 0,0 l/m W-NW 11,3 km/h (2 Bft)
30.07.2009 17:00 21,7 C 63 % 1019,5 hPa 0,0 l/m W 10,2 km/h (2 Bft)
30.07.2009 18:00 21,6 C 63 % 1019,6 hPa 0,0 l/m SW 9,0 km/h (2 Bft)
30.07.2009 19:00 21,0 C 65 % 1019,8 hPa 0,0 l/m W-SW 8,3 km/h (2 Bft)
30.07.2009 20:00 19,6 C 70 % 1020,1 hPa 0,0 l/m W-NW 6,1 km/h (2 Bft)
30.07.2009 21:00 18,2 C 74 % 1020,8 hPa 0,0 l/m W-SW 2,1 km/h (1 Bft)
30.07.2009 22:00 16,9 C 81 % 1021,1 hPa 0,0 l/m N 1,1 km/h (0 Bft)
30.07.2009 23:00 16,4 C 77 % 1021,4 hPa 0,0 l/m N-NW 6,8 km/h (2 Bft)
31.07.2009 00:00 15,2 C 80 % 1021,7 hPa 0,0 l/m N 5,7 km/h (1 Bft)
31.07.2009 01:00 14,3 C 84 % 1021,9 hPa 0,0 l/m N 2,8 km/h (1 Bft)
31.07.2009 02:00 13,8 C 84 % 1021,9 hPa 0,0 l/m N 4,9 km/h (1 Bft)
31.07.2009 03:00 13,1 C 83 % 1021,9 hPa 0,0 l/m N 3,7 km/h (1 Bft)
31.07.2009 04:00 12,7 C 85 % 1021,9 hPa 0,0 l/m N 0,9 km/h (0 Bft)
31.07.2009 05:00 13,1 C 85 % 1021,8 hPa 0,0 l/m N 1,6 km/h (1 Bft)
31.07.2009 06:00 13,1 C 84 % 1021,8 hPa 0,0 l/m N 4,9 km/h (1 Bft)
31.07.2009 07:00 14,2 C 79 % 1021,7 hPa 0,0 l/m N-NO 4,5 km/h (1 Bft)
31.07.2009 08:00 15,1 C 73 % 1021,3 hPa 0,0 l/m O-NO 9,5 km/h (2 Bft)
31.07.2009 09:00 16,4 C 65 % 1021,1 hPa 0,0 l/m O 15,4 km/h (3 Bft)
31.07.2009 10:00 17,0 C 63 % 1020,6 hPa 0,0 l/m O 20,8 km/h (4 Bft)
31.07.2009 11:00 17,7 C 62 % 1020,4 hPa 0,0 l/m O 17,7 km/h (3 Bft)
31.07.2009 12:00 19,6 C 56 % 1019,8 hPa 0,0 l/m O-NO 20,9 km/h (4 Bft)
31.07.2009 13:00 20,4 C 56 % 1019,2 hPa 0,0 l/m O-NO 19,8 km/h (4 Bft)
31.07.2009 14:00 20,8 C 56 % 1018,8 hPa 0,0 l/m O 17,8 km/h (3 Bft)
31.07.2009 15:00 21,5 C 55 % 1018,4 hPa 0,0 l/m O-NO 17,7 km/h (3 Bft)
31.07.2009 16:00 21,6 C 55 % 1018,2 hPa 0,0 l/m O 15,8 km/h (3 Bft)
31.07.2009 17:00 21,8 C 56 % 1018,0 hPa 0,0 l/m O-NO 14,0 km/h (3 Bft)
31.07.2009 18:00 21,5 C 56 % 1017,8 hPa 0,0 l/m O 13,7 km/h (3 Bft)
31.07.2009 19:00 20,6 C 59 % 1017,6 hPa 0,0 l/m O 9,4 km/h (2 Bft)
31.07.2009 20:00 19,5 C 66 % 1017,4 hPa 0,0 l/m O-NO 5,1 km/h (1 Bft)
31.07.2009 21:00 18,0 C 77 % 1017,5 hPa 0,0 l/m N 2,3 km/h (1 Bft)
31.07.2009 22:00 17,3 C 78 % 1017,4 hPa 0,0 l/m O-NO 3,5 km/h (1 Bft)
31.07.2009 23:00 15,5 C 86 % 1017,0 hPa 0,0 l/m N 2,3 km/h (1 Bft)
01.08.2009 00:00 14,4 C 90 % 1016,7 hPa 0,0 l/m N 1,7 km/h (1 Bft)
01.08.2009 01:00 13,8 C 92 % 1016,4 hPa 0,0 l/m NO 2,7 km/h (1 Bft)
01.08.2009 02:00 13,5 C 93 % 1015,9 hPa 0,0 l/m N-NW 6,3 km/h (2 Bft)
01.08.2009 03:00 13,2 C 92 % 1015,7 hPa 0,0 l/m N-NW 5,2 km/h (1 Bft)
01.08.2009 04:00 12,5 C 94 % 1015,4 hPa 0,0 l/m N-NW 3,6 km/h (1 Bft)
01.08.2009 05:00 11,9 C 95 % 1015,5 hPa 0,0 l/m N 0,3 km/h (0 Bft)
01.08.2009 06:00 11,4 C 96 % 1015,5 hPa 0,0 l/m N 0,0 km/h (0 Bft)
01.08.2009 07:00 13,1 C 95 % 1015,4 hPa 0,0 l/m N-NW 3,3 km/h (1 Bft)
01.08.2009 08:00 15,5 C 87 % 1015,4 hPa 0,0 l/m O 3,3 km/h (1 Bft)
01.08.2009 09:00 17,9 C 80 % 1014,9 hPa 0,0 l/m O-SO 4,7 km/h (1 Bft)
01.08.2009 10:00 20,2 C 75 % 1014,4 hPa 0,0 l/m S 8,0 km/h (2 Bft)
01.08.2009 11:00 22,0 C 68 % 1013,8 hPa 0,0 l/m SW 12,1 km/h (2 Bft)
01.08.2009 12:00 22,4 C 67 % 1013,4 hPa 0,0 l/m S-SW 10,6 km/h (2 Bft)
01.08.2009 13:00 24,5 C 55 % 1012,7 hPa 0,0 l/m W-SW 11,3 km/h (2 Bft)
01.08.2009 14:00 26,0 C 50 % 1012,1 hPa 0,0 l/m W-NW 14,4 km/h (3 Bft)
01.08.2009 15:00 27,3 C 42 % 1011,3 hPa 0,0 l/m W 11,3 km/h (2 Bft)
01.08.2009 16:00 28,1 C 34 % 1010,6 hPa 0,0 l/m W-SW 14,9 km/h (3 Bft)
01.08.2009 17:00 28,1 C 34 % 1010,4 hPa 0,0 l/m W 9,4 km/h (2 Bft)
01.08.2009 18:00 27,5 C 38 % 1010,1 hPa 0,0 l/m W-SW 7,9 km/h (2 Bft)
01.08.2009 19:00 25,3 C 50 % 1009,7 hPa 0,0 l/m SW 6,3 km/h (2 Bft)
01.08.2009 20:00 22,0 C 69 % 1009,5 hPa 0,0 l/m N 0,4 km/h (0 Bft)
01.08.2009 21:00 19,4 C 74 % 1009,5 hPa 0,0 l/m N 0,0 km/h (0 Bft)
01.08.2009 22:00 18,0 C 79 % 1009,2 hPa 0,0 l/m N 1,2 km/h (1 Bft)
01.08.2009 23:00 17,2 C 82 % 1008,9 hPa 0,0 l/m N 1,3 km/h (1 Bft)
02.08.2009 00:00 16,9 C 83 % 1008,6 hPa 0,0 l/m NW 4,8 km/h (1 Bft)
02.08.2009 01:00 16,8 C 82 % 1008,4 hPa 0,0 l/m NW 3,9 km/h (1 Bft)
02.08.2009 02:00 16,0 C 85 % 1008,1 hPa 0,0 l/m N 1,5 km/h (1 Bft)
02.08.2009 03:00 15,4 C 89 % 1007,5 hPa 0,0 l/m N 0,5 km/h (0 Bft)
02.08.2009 04:00 15,3 C 89 % 1006,9 hPa 0,0 l/m W 1,5 km/h (1 Bft)
02.08.2009 05:00 15,5 C 89 % 1007,9 hPa 0,0 l/m N 13,1 km/h (3 Bft)
02.08.2009 06:00 16,3 C 86 % 1009,0 hPa 0,0 l/m S-SW 4,0 km/h (1 Bft)
02.08.2009 07:00 16,6 C 87 % 1009,5 hPa 0,0 l/m SW 6,6 km/h (2 Bft)
02.08.2009 08:00 17,6 C 85 % 1009,6 hPa 0,0 l/m S-SO 5,2 km/h (1 Bft)
02.08.2009 09:00 19,3 C 79 % 1009,6 hPa 0,0 l/m SW 9,1 km/h (2 Bft)
02.08.2009 10:00 22,5 C 64 % 1010,0 hPa 0,0 l/m W 21,0 km/h (4 Bft)
02.08.2009 11:00 22,7 C 62 % 1010,2 hPa 0,0 l/m W 21,4 km/h (4 Bft)
02.08.2009 12:00 22,6 C 62 % 1010,5 hPa 0,0 l/m W-NW 21,0 km/h (4 Bft)
02.08.2009 13:00 20,6 C 70 % 1011,5 hPa 0,0 l/m W-SW 15,8 km/h (3 Bft)
02.08.2009 14:00 18,2 C 81 % 1012,4 hPa 0,6 l/m W 20,9 km/h (4 Bft)
02.08.2009 15:00 17,2 C 91 % 1012,2 hPa 1,2 l/m W 13,3 km/h (3 Bft)
02.08.2009 16:00 16,8 C 91 % 1012,0 hPa 0,0 l/m S-SW 15,2 km/h (3 Bft)
02.08.2009 17:00 16,7 C 88 % 1012,2 hPa 0,0 l/m S-SW 22,2 km/h (4 Bft)
02.08.2009 18:00 16,7 C 87 % 1012,2 hPa 0,0 l/m SW 11,1 km/h (2 Bft)
02.08.2009 19:00 16,8 C 88 % 1012,8 hPa 0,0 l/m W-SW 10,5 km/h (2 Bft)
02.08.2009 20:00 16,7 C 88 % 1013,4 hPa 0,0 l/m S-SW 4,7 km/h (1 Bft)
02.08.2009 21:00 16,5 C 89 % 1013,9 hPa 0,0 l/m S-SO 4,9 km/h (1 Bft)
02.08.2009 22:00 15,5 C 91 % 1013,6 hPa 0,0 l/m S-SW 3,3 km/h (1 Bft)
02.08.2009 23:00 14,8 C 94 % 1013,9 hPa 0,0 l/m S-SW 5,6 km/h (1 Bft)
Min-Datum _ 27.07.09 29.07.09 02.08.09 - - 27.07.09
_ Min-Zeit 05:30 17:30 04:15 - - 01:00
Minimum _ 9,7 C 23 % 1006,8 hPa - - 0,0 km/h (0 Bft)
Max-Datum _ 27.07.09 28.07.09 31.07.09 28.07.09 - 02.08.09
_ Max-Zeit 16:10 03:15 01:35 02:40 - 05:30
Maximum _ 29,2 C 97 % 1022,0 hPa 11,6 l/m - 38,6 km/h
W (5 Bft)
Durchschnitt _ 18,4 C 73 % 1015,8 hPa #38,2 l/m W-SW 7,6 km/h (2 Bft)